createdAt,value
2023-11-22T05:04:51.203Z,100341.81
2023-11-22T05:07:54.085Z,100345.22
2023-11-22T05:10:57.434Z,100349.13
2023-11-22T05:14:01.510Z,100349.84
2023-11-22T05:17:05.900Z,100359.00
2023-11-22T05:20:11.055Z,100361.94
2023-11-22T05:23:14.836Z,100371.38
2023-11-22T05:26:18.080Z,100368.81
2023-11-22T05:29:21.140Z,100380.19
2023-11-22T05:32:24.241Z,100386.81
2023-11-22T05:35:27.153Z,100380.19
2023-11-22T05:38:30.254Z,100384.28
2023-11-22T05:41:33.480Z,100395.28
2023-11-22T05:44:36.747Z,100403.59
2023-11-22T05:47:39.599Z,100417.13
2023-11-22T05:50:43.020Z,100409.53
2023-11-22T05:53:45.764Z,100416.41
2023-11-22T05:56:48.957Z,100410.75
2023-11-22T05:59:52.186Z,100409.06
2023-11-22T06:02:56.655Z,100418.59
2023-11-22T06:06:00.380Z,100424.50
2023-11-22T06:09:03.589Z,100425.84
2023-11-22T06:12:07.179Z,100422.09
2023-11-22T06:15:10.311Z,100431.13
2023-11-22T06:18:15.186Z,100443.44
2023-11-22T06:21:18.051Z,100456.97
2023-11-22T06:24:21.335Z,100463.84
2023-11-22T06:27:24.952Z,100457.94
2023-11-22T06:30:28.252Z,100468.06
2023-11-22T06:33:31.278Z,100473.25
2023-11-22T06:36:34.287Z,100473.25
2023-11-22T06:39:38.567Z,100487.00
2023-11-22T06:42:42.755Z,100492.41
2023-11-22T06:45:46.295Z,100490.09
2023-11-22T06:48:50.784Z,100488.56
2023-11-22T06:51:53.676Z,100496.97
2023-11-22T06:54:57.006Z,100496.28
2023-11-22T06:58:00.406Z,100502.53
2023-11-22T07:01:03.755Z,100499.84
2023-11-22T07:04:08.067Z,100509.09
2023-11-22T07:07:12.233Z,100520.88
2023-11-22T07:10:16.259Z,100515.06
2023-11-22T07:13:19.515Z,100526.09
2023-11-22T07:16:22.298Z,100527.19
2023-11-22T07:19:25.510Z,100532.09
2023-11-22T07:22:29.117Z,100532.72
2023-11-22T07:25:32.996Z,100549.00
2023-11-22T07:28:37.037Z,100549.31
2023-11-22T07:31:40.927Z,100544.41
2023-11-22T07:34:43.862Z,100539.03
2023-11-22T07:37:49.069Z,100542.25
2023-11-22T07:40:52.248Z,100532.84
2023-11-22T07:43:55.201Z,100532.56
2023-11-22T07:47:00.503Z,100537.47
2023-11-22T07:50:04.257Z,100536.34
2023-11-22T07:53:10.293Z,100544.94
2023-11-22T07:56:15.009Z,100542.97
2023-11-22T07:59:18.460Z,100562.09
2023-11-22T08:02:22.067Z,100561.22
2023-11-22T08:05:26.801Z,100570.28
2023-11-22T08:08:30.175Z,100569.19
2023-11-22T08:11:33.425Z,100579.84
2023-11-22T08:14:36.803Z,100582.75
2023-11-22T08:17:41.023Z,100585.91
2023-11-22T08:20:44.783Z,100584.12
2023-11-22T08:23:50.601Z,100591.28
2023-11-22T08:26:53.564Z,100594.16
2023-11-22T08:29:56.540Z,100598.56
2023-11-22T08:32:59.356Z,100607.59
2023-11-22T08:36:05.510Z,100601.50
2023-11-22T08:39:09.983Z,100604.62
2023-11-22T08:42:20.570Z,100602.75
2023-11-22T08:45:23.293Z,100606.69
2023-11-22T08:48:27.341Z,100607.13
2023-11-22T08:51:32.550Z,100605.34
2023-11-22T08:54:36.341Z,100606.50
2023-11-22T08:57:40.201Z,100608.84
2023-11-22T09:00:46.276Z,100618.84
2023-11-22T09:03:51.473Z,100612.50
2023-11-22T09:06:57.707Z,100613.97
2023-11-22T09:10:00.470Z,100608.06
2023-11-22T09:13:03.604Z,100614.03
2023-11-22T09:16:07.305Z,100609.75
2023-11-22T09:19:10.435Z,100612.44
2023-11-22T09:22:14.633Z,100609.66
2023-11-22T09:25:20.519Z,100614.00
2023-11-22T09:28:23.411Z,100615.91
2023-11-22T09:31:27.746Z,100604.97
2023-11-22T09:34:31.250Z,100622.03
2023-11-22T09:37:36.586Z,100613.34
2023-11-22T09:40:50.333Z,100616.63
2023-11-22T09:43:53.528Z,100622.63
2023-11-22T09:46:57.494Z,100626.87
2023-11-22T09:50:06.434Z,100633.34
2023-11-22T09:53:15.738Z,100639.44
2023-11-22T09:56:20.143Z,100639.06
2023-11-22T09:59:24.702Z,100640.78
2023-11-22T10:02:29.766Z,100632.81
2023-11-22T10:05:36.170Z,100628.41
2023-11-22T10:08:39.837Z,100624.94
2023-11-22T10:11:45.298Z,100629.12
2023-11-22T10:14:49.294Z,100634.72
2023-11-22T10:18:04.154Z,100633.50
2023-11-22T10:21:20.152Z,100639.91
2023-11-22T10:24:23.286Z,100641.63
2023-11-22T10:27:27.796Z,100644.63
2023-11-22T10:30:35.223Z,100644.53
2023-11-22T10:33:44.953Z,100660.03
2023-11-22T10:36:48.583Z,100654.66
2023-11-22T10:39:54.646Z,100657.75
2023-11-22T10:42:58.253Z,100665.47
2023-11-22T10:46:02.016Z,100676.75
2023-11-22T10:49:05.230Z,100674.41
2023-11-22T10:52:13.948Z,100689.88
2023-11-22T10:55:19.895Z,100688.69
2023-11-22T10:58:26.978Z,100691.19
2023-11-22T11:01:31.060Z,100683.59
2023-11-22T11:05:00.545Z,100696.72
2023-11-22T11:08:14.052Z,100704.25
2023-11-22T11:11:18.936Z,100711.19
2023-11-22T11:14:23.262Z,100716.94
2023-11-22T11:17:26.742Z,100717.97
2023-11-22T11:21:00.463Z,100730.09
2023-11-22T11:24:04.728Z,100726.94
2023-11-22T11:27:09.301Z,100733.16
2023-11-22T11:30:44.352Z,100736.84
2023-11-22T11:33:51.010Z,100731.66
2023-11-22T11:36:55.852Z,100739.97
2023-11-22T11:40:32.417Z,100733.78
2023-11-22T11:43:49.219Z,100741.34
2023-11-22T11:46:52.914Z,100751.50
2023-11-22T11:49:59.243Z,100756.69
2023-11-22T11:53:02.312Z,100747.75
2023-11-22T11:56:05.577Z,100749.22
2023-11-22T11:59:14.463Z,100743.69
2023-11-22T12:02:18.197Z,100741.31
2023-11-22T12:05:21.673Z,100741.16
2023-11-22T12:08:24.553Z,100744.75
2023-11-22T12:11:27.646Z,100749.81
2023-11-22T12:14:30.430Z,100750.41
2023-11-22T12:17:35.027Z,100749.16
2023-11-22T12:20:38.837Z,100749.53
2023-11-22T12:23:45.869Z,100752.41
2023-11-22T12:26:51.983Z,100763.34
2023-11-22T12:29:55.649Z,100766.94
2023-11-22T12:33:03.662Z,100766.69
2023-11-22T12:36:08.641Z,100756.66
2023-11-22T12:39:29.807Z,100757.06
2023-11-22T12:42:33.038Z,100777.94
2023-11-22T12:45:40.624Z,100780.63
2023-11-22T12:48:43.882Z,100789.53
2023-11-22T12:51:48.439Z,100797.09
2023-11-22T12:54:51.488Z,100813.41
2023-11-22T12:58:04.450Z,100815.44
2023-11-22T13:01:07.699Z,100818.62
2023-11-22T13:04:11.582Z,100807.19
2023-11-22T13:07:14.924Z,100825.28
2023-11-22T13:10:18.457Z,100829.28
2023-11-22T13:13:25.299Z,100826.28
2023-11-22T13:16:28.352Z,100832.22
2023-11-22T13:19:31.633Z,100819.31
2023-11-22T13:22:34.328Z,100825.91
2023-11-22T13:25:39.591Z,100824.78
2023-11-22T13:28:43.436Z,100817.69
2023-11-22T13:31:46.722Z,100820.97
2023-11-22T13:34:50.284Z,100813.41
2023-11-22T13:37:53.366Z,100806.81
2023-11-22T13:40:56.235Z,100806.81
2023-11-22T13:43:59.666Z,100813.47
2023-11-22T13:47:02.420Z,100823.78
2023-11-22T13:50:06.515Z,100837.72
2023-11-22T13:53:12.230Z,100835.78
2023-11-22T13:56:17.118Z,100831.44
2023-11-22T13:59:21.362Z,100846.53
2023-11-22T14:02:24.451Z,100862.75
2023-11-22T14:05:28.053Z,100851.22
2023-11-22T14:08:30.772Z,100855.00
2023-11-22T14:11:36.402Z,100865.44
2023-11-22T14:14:39.321Z,100852.22
2023-11-22T14:17:43.431Z,100839.69
2023-11-22T14:20:47.566Z,100834.47
2023-11-22T14:23:50.784Z,100838.00
2023-11-22T14:26:53.691Z,100851.66
2023-11-22T14:29:57.109Z,100858.72
2023-11-22T14:33:01.022Z,100867.00
2023-11-22T14:36:05.497Z,100871.37
2023-11-22T14:39:13.203Z,100881.78
2023-11-22T14:42:17.290Z,100883.47
2023-11-22T14:45:21.461Z,100889.09
2023-11-22T14:48:25.012Z,100900.38
2023-11-22T14:51:28.056Z,100901.63
2023-11-22T14:54:31.347Z,100902.75
2023-11-22T14:57:34.186Z,100906.50
2023-11-22T15:00:38.536Z,100905.25
2023-11-22T15:03:43.065Z,100899.72
2023-11-22T15:06:46.400Z,100910.97
2023-11-22T15:09:49.416Z,100917.09
2023-11-22T15:12:52.621Z,100920.91
2023-11-22T15:15:57.822Z,100912.69
2023-11-22T15:19:03.776Z,100915.19
2023-11-22T15:22:07.229Z,100932.03
2023-11-22T15:25:16.770Z,100938.94
2023-11-22T15:28:24.103Z,100931.00
2023-11-22T15:31:27.455Z,100933.75
2023-11-22T15:34:30.392Z,100951.22
2023-11-22T15:37:33.550Z,100954.84
2023-11-22T15:40:36.295Z,100962.50
2023-11-22T15:43:39.515Z,100953.31
2023-11-22T15:46:42.840Z,100956.00
2023-11-22T15:49:46.201Z,100967.12
2023-11-22T15:52:48.949Z,100978.59
2023-11-22T15:55:52.082Z,100985.19
2023-11-22T15:59:00.525Z,101003.28
2023-11-22T16:02:04.263Z,101016.13
2023-11-22T16:05:10.295Z,101014.94
2023-11-22T16:08:15.054Z,101016.19
2023-11-22T16:11:18.306Z,101016.50
2023-11-22T16:14:21.361Z,101034.41
2023-11-22T16:17:25.127Z,101037.31
2023-11-22T16:20:27.745Z,101036.53
2023-11-22T16:23:31.028Z,101047.19
2023-11-22T16:26:33.833Z,101054.13
2023-11-22T16:29:37.301Z,101053.16
2023-11-22T16:32:40.739Z,101058.56
2023-11-22T16:35:43.835Z,101061.94
2023-11-22T16:38:47.080Z,101061.34
2023-11-22T16:41:50.756Z,101058.69
2023-11-22T16:44:53.629Z,101056.28
2023-11-22T16:47:58.742Z,101070.75
2023-11-22T16:51:01.878Z,101090.00
2023-11-22T16:54:05.404Z,101075.69
2023-11-22T16:57:08.200Z,101081.75
